sensor_id;sensor_type;location;lat;lon;timestamp;temperature;humidity
25951;DHT22;13748;52.240;6.002;2023-04-03T00:01:00;3.40;99.90
25951;DHT22;13748;52.240;6.002;2023-04-03T00:03:27;3.40;99.90
25951;DHT22;13748;52.240;6.002;2023-04-03T00:05:54;3.50;99.90
25951;DHT22;13748;52.240;6.002;2023-04-03T00:08:21;3.40;99.90
25951;DHT22;13748;52.240;6.002;2023-04-03T00:10:48;3.40;99.90
25951;DHT22;13748;52.240;6.002;2023-04-03T00:13:16;3.40;99.90
25951;DHT22;13748;52.240;6.002;2023-04-03T00:15:43;3.40;99.90
25951;DHT22;13748;52.240;6.002;2023-04-03T00:18:10;3.30;99.90
25951;DHT22;13748;52.240;6.002;2023-04-03T00:20:37;3.30;99.90
25951;DHT22;13748;52.240;6.002;2023-04-03T00:23:04;3.30;99.90
25951;DHT22;13748;52.240;6.002;2023-04-03T00:25:31;3.30;99.90
25951;DHT22;13748;52.240;6.002;2023-04-03T00:27:59;3.30;99.90
25951;DHT22;13748;52.240;6.002;2023-04-03T00:30:25;4.00;99.90
25951;DHT22;13748;52.240;6.002;2023-04-03T00:32:52;3.20;99.90
25951;DHT22;13748;52.240;6.002;2023-04-03T00:35:20;3.20;99.90
25951;DHT22;13748;52.240;6.002;2023-04-03T00:37:48;2.80;99.90
25951;DHT22;13748;52.240;6.002;2023-04-03T00:40:15;3.20;99.90
25951;DHT22;13748;52.240;6.002;2023-04-03T00:42:44;2.20;99.90
25951;DHT22;13748;52.240;6.002;2023-04-03T00:47:39;2.80;99.90
25951;DHT22;13748;52.240;6.002;2023-04-03T00:50:07;3.10;99.90
25951;DHT22;13748;52.240;6.002;2023-04-03T00:52:34;3.10;99.90
25951;DHT22;13748;52.240;6.002;2023-04-03T00:55:04;3.10;99.90
25951;DHT22;13748;52.240;6.002;2023-04-03T00:57:32;3.10;99.90
25951;DHT22;13748;52.240;6.002;2023-04-03T01:00:04;3.00;99.90
25951;DHT22;13748;52.240;6.002;2023-04-03T01:02:32;3.00;99.90
25951;DHT22;13748;52.240;6.002;2023-04-03T01:04:59;2.90;99.90
25951;DHT22;13748;52.240;6.002;2023-04-03T01:07:29;2.80;99.90
25951;DHT22;13748;52.240;6.002;2023-04-03T01:09:59;3.70;99.90
25951;DHT22;13748;52.240;6.002;2023-04-03T01:12:29;2.90;99.90
25951;DHT22;13748;52.240;6.002;2023-04-03T01:14:59;2.90;99.90
25951;DHT22;13748;52.240;6.002;2023-04-03T01:17:39;2.90;99.90
25951;DHT22;13748;52.240;6.002;2023-04-03T01:25:30;2.80;99.90
25951;DHT22;13748;52.240;6.002;2023-04-03T01:27:57;2.80;99.90
25951;DHT22;13748;52.240;6.002;2023-04-03T01:30:30;2.70;99.90
25951;DHT22;13748;52.240;6.002;2023-04-03T01:32:57;3.50;99.90
25951;DHT22;13748;52.240;6.002;2023-04-03T01:35:24;2.70;99.90
25951;DHT22;13748;52.240;6.002;2023-04-03T01:37:54;2.80;99.90
25951;DHT22;13748;52.240;6.002;2023-04-03T01:40:20;2.70;99.90
25951;DHT22;13748;52.240;6.002;2023-04-03T01:42:47;2.80;99.90
25951;DHT22;13748;52.240;6.002;2023-04-03T01:45:14;2.60;99.90
25951;DHT22;13748;52.240;6.002;2023-04-03T01:47:41;2.60;99.90
25951;DHT22;13748;52.240;6.002;2023-04-03T01:50:08;2.60;99.90
25951;DHT22;13748;52.240;6.002;2023-04-03T01:52:35;2.50;99.90
25951;DHT22;13748;52.240;6.002;2023-04-03T01:55:02;2.50;99.90
25951;DHT22;13748;52.240;6.002;2023-04-03T01:57:29;2.50;99.90
25951;DHT22;13748;52.240;6.002;2023-04-03T01:59:56;2.50;99.90
25951;DHT22;13748;52.240;6.002;2023-04-03T02:02:25;2.50;99.90
25951;DHT22;13748;52.240;6.002;2023-04-03T02:04:52;2.50;99.90
25951;DHT22;13748;52.240;6.002;2023-04-03T02:07:19;2.40;99.90
25951;DHT22;13748;52.240;6.002;2023-04-03T02:09:46;2.40;99.90
25951;DHT22;13748;52.240;6.002;2023-04-03T02:12:13;2.40;99.90
25951;DHT22;13748;52.240;6.002;2023-04-03T02:14:39;2.40;99.90
25951;DHT22;13748;52.240;6.002;2023-04-03T02:17:06;2.40;99.90
25951;DHT22;13748;52.240;6.002;2023-04-03T02:19:35;2.20;99.90
25951;DHT22;13748;52.240;6.002;2023-04-03T02:22:03;2.40;99.90
25951;DHT22;13748;52.240;6.002;2023-04-03T02:24:31;2.40;99.90
25951;DHT22;13748;52.240;6.002;2023-04-03T02:26:58;2.30;99.90
25951;DHT22;13748;52.240;6.002;2023-04-03T02:29:24;2.30;99.90
25951;DHT22;13748;52.240;6.002;2023-04-03T02:31:51;2.30;99.90
25951;DHT22;13748;52.240;6.002;2023-04-03T02:34:18;2.30;99.90
25951;DHT22;13748;52.240;6.002;2023-04-03T02:36:45;1.80;99.90
25951;DHT22;13748;52.240;6.002;2023-04-03T02:39:12;1.60;99.90
25951;DHT22;13748;52.240;6.002;2023-04-03T02:41:42;2.50;99.90
25951;DHT22;13748;52.240;6.002;2023-04-03T02:44:10;2.40;99.90
25951;DHT22;13748;52.240;6.002;2023-04-03T02:46:37;2.50;99.90
25951;DHT22;13748;52.240;6.002;2023-04-03T02:49:04;1.90;99.90
25951;DHT22;13748;52.240;6.002;2023-04-03T02:51:31;2.10;99.90
25951;DHT22;13748;52.240;6.002;2023-04-03T02:53:58;2.60;99.90
25951;DHT22;13748;52.240;6.002;2023-04-03T02:56:25;2.10;99.90
25951;DHT22;13748;52.240;6.002;2023-04-03T02:58:53;2.80;99.90
25951;DHT22;13748;52.240;6.002;2023-04-03T03:01:20;3.10;99.90
25951;DHT22;13748;52.240;6.002;2023-04-03T03:03:47;2.10;99.90
25951;DHT22;13748;52.240;6.002;2023-04-03T03:06:16;3.10;99.90
25951;DHT22;13748;52.240;6.002;2023-04-03T03:08:43;2.00;99.90
25951;DHT22;13748;52.240;6.002;2023-04-03T03:11:10;1.70;99.90
25951;DHT22;13748;52.240;6.002;2023-04-03T03:13:37;1.90;99.90
25951;DHT22;13748;52.240;6.002;2023-04-03T03:16:05;1.90;99.90
25951;DHT22;13748;52.240;6.002;2023-04-03T03:21:01;1.90;99.90
25951;DHT22;13748;52.240;6.002;2023-04-03T03:23:30;1.80;99.90
25951;DHT22;13748;52.240;6.002;2023-04-03T03:26:04;1.80;99.90
25951;DHT22;13748;52.240;6.002;2023-04-03T03:28:32;1.70;99.90
25951;DHT22;13748;52.240;6.002;2023-04-03T03:31:00;1.70;99.90
25951;DHT22;13748;52.240;6.002;2023-04-03T03:33:27;1.70;99.90
25951;DHT22;13748;52.240;6.002;2023-04-03T03:35:54;1.70;99.90
25951;DHT22;13748;52.240;6.002;2023-04-03T03:38:22;1.60;99.90
25951;DHT22;13748;52.240;6.002;2023-04-03T03:40:50;1.60;99.90
25951;DHT22;13748;52.240;6.002;2023-04-03T03:43:18;1.60;99.90
25951;DHT22;13748;52.240;6.002;2023-04-03T03:45:45;1.60;99.90
25951;DHT22;13748;52.240;6.002;2023-04-03T03:48:15;1.60;99.90
25951;DHT22;13748;52.240;6.002;2023-04-03T03:50:42;1.50;99.90
25951;DHT22;13748;52.240;6.002;2023-04-03T03:53:09;1.50;99.90
25951;DHT22;13748;52.240;6.002;2023-04-03T03:55:36;1.50;99.90
25951;DHT22;13748;52.240;6.002;2023-04-03T03:58:03;1.50;99.90
25951;DHT22;13748;52.240;6.002;2023-04-03T04:00:30;1.40;99.90
25951;DHT22;13748;52.240;6.002;2023-04-03T04:02:57;1.40;99.90
25951;DHT22;13748;52.240;6.002;2023-04-03T04:05:25;1.40;99.90
25951;DHT22;13748;52.240;6.002;2023-04-03T04:07:51;1.40;99.90
25951;DHT22;13748;52.240;6.002;2023-04-03T04:10:18;1.30;99.90
25951;DHT22;13748;52.240;6.002;2023-04-03T04:12:45;1.30;99.90
25951;DHT22;13748;52.240;6.002;2023-04-03T04:15:12;1.30;99.90
25951;DHT22;13748;52.240;6.002;2023-04-03T04:17:39;1.30;99.90
25951;DHT22;13748;52.240;6.002;2023-04-03T04:20:06;1.20;99.90
25951;DHT22;13748;52.240;6.002;2023-04-03T04:22:33;1.10;99.90
25951;DHT22;13748;52.240;6.002;2023-04-03T04:24:59;1.10;99.90
25951;DHT22;13748;52.240;6.002;2023-04-03T04:27:26;1.00;99.90
25951;DHT22;13748;52.240;6.002;2023-04-03T04:29:53;1.00;99.90
25951;DHT22;13748;52.240;6.002;2023-04-03T04:32:20;1.00;99.90
25951;DHT22;13748;52.240;6.002;2023-04-03T04:34:47;1.00;99.90
25951;DHT22;13748;52.240;6.002;2023-04-03T04:37:13;0.90;99.90
25951;DHT22;13748;52.240;6.002;2023-04-03T04:39:40;0.90;99.90
25951;DHT22;13748;52.240;6.002;2023-04-03T04:42:07;0.90;99.90
25951;DHT22;13748;52.240;6.002;2023-04-03T04:44:42;0.90;99.90
25951;DHT22;13748;52.240;6.002;2023-04-03T04:47:09;0.80;99.90
25951;DHT22;13748;52.240;6.002;2023-04-03T04:49:35;0.80;99.90
25951;DHT22;13748;52.240;6.002;2023-04-03T04:52:02;0.80;99.90
25951;DHT22;13748;52.240;6.002;2023-04-03T04:54:29;0.80;99.90
25951;DHT22;13748;52.240;6.002;2023-04-03T04:56:56;0.80;99.90
25951;DHT22;13748;52.240;6.002;2023-04-03T04:59:23;0.70;99.90
25951;DHT22;13748;52.240;6.002;2023-04-03T05:01:49;0.70;99.90
25951;DHT22;13748;52.240;6.002;2023-04-03T05:04:16;0.80;99.90
25951;DHT22;13748;52.240;6.002;2023-04-03T05:06:44;0.70;99.90
25951;DHT22;13748;52.240;6.002;2023-04-03T05:09:10;0.70;99.90
25951;DHT22;13748;52.240;6.002;2023-04-03T05:11:37;0.70;99.90
25951;DHT22;13748;52.240;6.002;2023-04-03T05:14:04;0.70;99.90
25951;DHT22;13748;52.240;6.002;2023-04-03T05:16:33;0.70;99.90
25951;DHT22;13748;52.240;6.002;2023-04-03T05:19:00;0.80;99.90
25951;DHT22;13748;52.240;6.002;2023-04-03T05:21:27;0.80;99.90
25951;DHT22;13748;52.240;6.002;2023-04-03T05:24:01;0.80;99.90
25951;DHT22;13748;52.240;6.002;2023-04-03T05:26:30;0.80;99.90
25951;DHT22;13748;52.240;6.002;2023-04-03T05:28:57;0.80;99.90
25951;DHT22;13748;52.240;6.002;2023-04-03T05:31:24;0.80;99.90
25951;DHT22;13748;52.240;6.002;2023-04-03T05:33:51;0.80;99.90
25951;DHT22;13748;52.240;6.002;2023-04-03T05:36:18;0.80;99.90
25951;DHT22;13748;52.240;6.002;2023-04-03T05:38:46;0.80;99.90
25951;DHT22;13748;52.240;6.002;2023-04-03T05:41:14;0.80;99.90
25951;DHT22;13748;52.240;6.002;2023-04-03T05:43:41;0.80;99.90
25951;DHT22;13748;52.240;6.002;2023-04-03T05:46:18;0.80;99.90
25951;DHT22;13748;52.240;6.002;2023-04-03T05:48:47;0.90;99.90
25951;DHT22;13748;52.240;6.002;2023-04-03T05:51:17;0.80;99.90
25951;DHT22;13748;52.240;6.002;2023-04-03T05:53:45;0.90;99.90
25951;DHT22;13748;52.240;6.002;2023-04-03T05:56:13;0.90;99.90
25951;DHT22;13748;52.240;6.002;2023-04-03T05:58:40;0.90;99.90
25951;DHT22;13748;52.240;6.002;2023-04-03T06:01:06;0.90;99.90
25951;DHT22;13748;52.240;6.002;2023-04-03T06:03:34;1.00;99.90
25951;DHT22;13748;52.240;6.002;2023-04-03T06:06:04;1.00;99.90
25951;DHT22;13748;52.240;6.002;2023-04-03T06:08:31;1.00;99.90
25951;DHT22;13748;52.240;6.002;2023-04-03T06:10:58;1.00;99.90
25951;DHT22;13748;52.240;6.002;2023-04-03T06:13:25;1.20;99.90
25951;DHT22;13748;52.240;6.002;2023-04-03T06:15:52;1.10;99.90
25951;DHT22;13748;52.240;6.002;2023-04-03T06:18:18;1.10;99.90
25951;DHT22;13748;52.240;6.002;2023-04-03T06:20:46;1.10;99.90
25951;DHT22;13748;52.240;6.002;2023-04-03T06:23:13;1.20;99.90
25951;DHT22;13748;52.240;6.002;2023-04-03T06:25:40;1.20;99.90
25951;DHT22;13748;52.240;6.002;2023-04-03T06:28:09;1.20;99.90
25951;DHT22;13748;52.240;6.002;2023-04-03T06:30:37;1.30;99.90
25951;DHT22;13748;52.240;6.002;2023-04-03T06:33:04;1.30;99.90
25951;DHT22;13748;52.240;6.002;2023-04-03T06:35:31;1.30;99.90
25951;DHT22;13748;52.240;6.002;2023-04-03T06:37:58;1.40;99.90
25951;DHT22;13748;52.240;6.002;2023-04-03T06:40:25;1.40;99.90
25951;DHT22;13748;52.240;6.002;2023-04-03T06:42:53;1.50;99.90
25951;DHT22;13748;52.240;6.002;2023-04-03T06:45:19;1.50;99.90
25951;DHT22;13748;52.240;6.002;2023-04-03T06:47:48;1.90;99.90
25951;DHT22;13748;52.240;6.002;2023-04-03T06:50:14;1.60;99.90
25951;DHT22;13748;52.240;6.002;2023-04-03T06:52:41;1.70;99.90
25951;DHT22;13748;52.240;6.002;2023-04-03T06:55:09;1.70;99.90
25951;DHT22;13748;52.240;6.002;2023-04-03T06:57:36;1.90;99.90
25951;DHT22;13748;52.240;6.002;2023-04-03T07:00:05;2.30;99.90
25951;DHT22;13748;52.240;6.002;2023-04-03T07:02:32;3.40;99.90
25951;DHT22;13748;52.240;6.002;2023-04-03T07:04:59;4.00;99.90
25951;DHT22;13748;52.240;6.002;2023-04-03T07:07:26;5.90;99.90
25951;DHT22;13748;52.240;6.002;2023-04-03T07:09:53;7.00;99.90
25951;DHT22;13748;52.240;6.002;2023-04-03T07:12:20;7.90;99.90
25951;DHT22;13748;52.240;6.002;2023-04-03T07:14:47;8.60;99.90
25951;DHT22;13748;52.240;6.002;2023-04-03T07:17:14;8.90;99.90
25951;DHT22;13748;52.240;6.002;2023-04-03T07:19:40;9.50;99.90
25951;DHT22;13748;52.240;6.002;2023-04-03T07:22:07;10.10;99.90
25951;DHT22;13748;52.240;6.002;2023-04-03T07:24:34;10.80;99.90
25951;DHT22;13748;52.240;6.002;2023-04-03T07:27:01;11.40;99.90
25951;DHT22;13748;52.240;6.002;2023-04-03T07:29:29;11.90;99.90
25951;DHT22;13748;52.240;6.002;2023-04-03T07:31:57;12.30;99.90
25951;DHT22;13748;52.240;6.002;2023-04-03T07:34:26;12.20;99.90
25951;DHT22;13748;52.240;6.002;2023-04-03T07:36:53;12.20;99.90
25951;DHT22;13748;52.240;6.002;2023-04-03T07:39:20;12.20;99.90
25951;DHT22;13748;52.240;6.002;2023-04-03T07:41:47;12.20;99.90
25951;DHT22;13748;52.240;6.002;2023-04-03T07:44:13;11.90;99.90
25951;DHT22;13748;52.240;6.002;2023-04-03T07:46:41;11.90;99.90
25951;DHT22;13748;52.240;6.002;2023-04-03T07:49:09;11.80;99.90
25951;DHT22;13748;52.240;6.002;2023-04-03T07:51:35;12.00;99.90
25951;DHT22;13748;52.240;6.002;2023-04-03T07:54:03;11.90;99.90
25951;DHT22;13748;52.240;6.002;2023-04-03T07:56:30;12.20;99.90
25951;DHT22;13748;52.240;6.002;2023-04-03T07:58:58;12.60;99.90
25951;DHT22;13748;52.240;6.002;2023-04-03T08:01:25;13.00;99.90
25951;DHT22;13748;52.240;6.002;2023-04-03T08:03:51;13.10;99.90
25951;DHT22;13748;52.240;6.002;2023-04-03T08:06:18;12.90;99.90
25951;DHT22;13748;52.240;6.002;2023-04-03T08:09:03;12.40;99.90
25951;DHT22;13748;52.240;6.002;2023-04-03T08:11:31;11.50;99.90
25951;DHT22;13748;52.240;6.002;2023-04-03T08:13:58;11.40;99.90
25951;DHT22;13748;52.240;6.002;2023-04-03T08:16:24;11.50;99.90
25951;DHT22;13748;52.240;6.002;2023-04-03T08:18:54;11.50;99.90
25951;DHT22;13748;52.240;6.002;2023-04-03T08:21:22;11.70;99.90
25951;DHT22;13748;52.240;6.002;2023-04-03T08:23:49;11.90;99.90
25951;DHT22;13748;52.240;6.002;2023-04-03T08:26:19;11.50;99.40
25951;DHT22;13748;52.240;6.002;2023-04-03T08:28:48;11.20;99.90
25951;DHT22;13748;52.240;6.002;2023-04-03T08:31:18;11.40;99.90
25951;DHT22;13748;52.240;6.002;2023-04-03T08:33:46;11.40;99.90
25951;DHT22;13748;52.240;6.002;2023-04-03T08:36:24;11.30;99.90
25951;DHT22;13748;52.240;6.002;2023-04-03T08:38:52;11.10;99.90
25951;DHT22;13748;52.240;6.002;2023-04-03T08:49:53;10.50;99.80
25951;DHT22;13748;52.240;6.002;2023-04-03T08:52:34;10.90;97.40
25951;DHT22;13748;52.240;6.002;2023-04-03T08:55:33;11.00;97.00
25951;DHT22;13748;52.240;6.002;2023-04-03T08:58:16;11.30;96.50
25951;DHT22;13748;52.240;6.002;2023-04-03T09:01:23;11.10;96.60
25951;DHT22;13748;52.240;6.002;2023-04-03T09:03:51;11.00;96.10
25951;DHT22;13748;52.240;6.002;2023-04-03T09:06:20;10.90;96.60
25951;DHT22;13748;52.240;6.002;2023-04-03T09:08:54;10.90;96.50
25951;DHT22;13748;52.240;6.002;2023-04-03T09:17:26;10.70;93.00
25951;DHT22;13748;52.240;6.002;2023-04-03T09:22:47;10.60;94.70
25951;DHT22;13748;52.240;6.002;2023-04-03T09:25:27;10.70;94.00
25951;DHT22;13748;52.240;6.002;2023-04-03T09:27:58;11.00;93.20
25951;DHT22;13748;52.240;6.002;2023-04-03T09:30:26;11.00;92.80
25951;DHT22;13748;52.240;6.002;2023-04-03T09:32:56;11.10;90.70
25951;DHT22;13748;52.240;6.002;2023-04-03T09:35:37;11.30;90.60
25951;DHT22;13748;52.240;6.002;2023-04-03T09:38:17;11.20;87.60
25951;DHT22;13748;52.240;6.002;2023-04-03T09:40:47;10.70;88.60
25951;DHT22;13748;52.240;6.002;2023-04-03T09:45:45;10.50;86.90
25951;DHT22;13748;52.240;6.002;2023-04-03T09:58:46;10.50;87.30
25951;DHT22;13748;52.240;6.002;2023-04-03T10:01:32;10.40;88.20
25951;DHT22;13748;52.240;6.002;2023-04-03T10:06:34;10.60;87.30
25951;DHT22;13748;52.240;6.002;2023-04-03T10:14:28;10.50;87.70
25951;DHT22;13748;52.240;6.002;2023-04-03T10:19:42;10.20;88.60
25951;DHT22;13748;52.240;6.002;2023-04-03T10:25:18;9.70;89.20
25951;DHT22;13748;52.240;6.002;2023-04-03T10:28:03;9.70;88.30
25951;DHT22;13748;52.240;6.002;2023-04-03T10:33:21;9.80;89.70
25951;DHT22;13748;52.240;6.002;2023-04-03T10:39:08;9.80;87.20
25951;DHT22;13748;52.240;6.002;2023-04-03T10:41:48;9.70;87.40
25951;DHT22;13748;52.240;6.002;2023-04-03T10:58:20;10.00;90.00
25951;DHT22;13748;52.240;6.002;2023-04-03T11:00:50;10.10;91.50
25951;DHT22;13748;52.240;6.002;2023-04-03T11:03:38;10.20;92.30
25951;DHT22;13748;52.240;6.002;2023-04-03T11:06:10;10.00;90.80
25951;DHT22;13748;52.240;6.002;2023-04-03T11:08:54;10.00;92.20
25951;DHT22;13748;52.240;6.002;2023-04-03T11:11:32;9.80;92.40
25951;DHT22;13748;52.240;6.002;2023-04-03T11:14:23;9.90;92.50
25951;DHT22;13748;52.240;6.002;2023-04-03T11:20:00;10.30;90.60
25951;DHT22;13748;52.240;6.002;2023-04-03T11:22:36;10.30;90.00
25951;DHT22;13748;52.240;6.002;2023-04-03T11:27:46;10.40;90.10
25951;DHT22;13748;52.240;6.002;2023-04-03T11:30:22;10.50;90.00
25951;DHT22;13748;52.240;6.002;2023-04-03T11:33:28;10.50;90.10
25951;DHT22;13748;52.240;6.002;2023-04-03T11:38:54;10.60;90.90
25951;DHT22;13748;52.240;6.002;2023-04-03T11:41:29;10.40;91.00
25951;DHT22;13748;52.240;6.002;2023-04-03T11:44:28;10.40;90.80
25951;DHT22;13748;52.240;6.002;2023-04-03T11:46:58;10.50;89.60
25951;DHT22;13748;52.240;6.002;2023-04-03T11:50:00;10.60;90.80
25951;DHT22;13748;52.240;6.002;2023-04-03T12:08:48;10.60;89.30
25951;DHT22;13748;52.240;6.002;2023-04-03T12:11:23;10.40;91.30
25951;DHT22;13748;52.240;6.002;2023-04-03T12:27:03;11.20;90.40
25951;DHT22;13748;52.240;6.002;2023-04-03T12:35:24;11.10;89.10
25951;DHT22;13748;52.240;6.002;2023-04-03T12:38:25;11.10;91.40
25951;DHT22;13748;52.240;6.002;2023-04-03T12:47:00;11.40;90.50
25951;DHT22;13748;52.240;6.002;2023-04-03T12:49:41;11.60;90.50
25951;DHT22;13748;52.240;6.002;2023-04-03T12:52:39;11.50;92.70
25951;DHT22;13748;52.240;6.002;2023-04-03T12:55:18;11.50;92.20
25951;DHT22;13748;52.240;6.002;2023-04-03T12:57:45;11.50;93.00
25951;DHT22;13748;52.240;6.002;2023-04-03T13:00:30;11.40;91.80
25951;DHT22;13748;52.240;6.002;2023-04-03T13:03:02;11.20;91.30
25951;DHT22;13748;52.240;6.002;2023-04-03T13:05:32;11.10;92.20
25951;DHT22;13748;52.240;6.002;2023-04-03T13:08:10;11.50;93.10
25951;DHT22;13748;52.240;6.002;2023-04-03T13:13:24;11.80;90.40
25951;DHT22;13748;52.240;6.002;2023-04-03T13:15:53;11.80;90.00
25951;DHT22;13748;52.240;6.002;2023-04-03T13:18:35;11.70;92.40
25951;DHT22;13748;52.240;6.002;2023-04-03T13:21:10;11.40;91.60
25951;DHT22;13748;52.240;6.002;2023-04-03T13:23:44;11.30;91.80
25951;DHT22;13748;52.240;6.002;2023-04-03T13:26:11;11.30;91.80
25951;DHT22;13748;52.240;6.002;2023-04-03T13:28:39;11.20;92.60
25951;DHT22;13748;52.240;6.002;2023-04-03T13:34:12;11.50;93.00
25951;DHT22;13748;52.240;6.002;2023-04-03T13:36:44;11.40;93.40
25951;DHT22;13748;52.240;6.002;2023-04-03T13:41:43;11.30;93.00
25951;DHT22;13748;52.240;6.002;2023-04-03T13:44:37;11.40;94.10
25951;DHT22;13748;52.240;6.002;2023-04-03T13:52:38;11.60;92.20
25951;DHT22;13748;52.240;6.002;2023-04-03T13:55:31;11.70;92.50
25951;DHT22;13748;52.240;6.002;2023-04-03T14:03:23;11.70;94.20
25951;DHT22;13748;52.240;6.002;2023-04-03T14:05:50;11.80;93.40
25951;DHT22;13748;52.240;6.002;2023-04-03T14:08:18;11.70;93.70
25951;DHT22;13748;52.240;6.002;2023-04-03T14:10:58;11.60;93.90
25951;DHT22;13748;52.240;6.002;2023-04-03T14:13:30;11.40;93.40
25951;DHT22;13748;52.240;6.002;2023-04-03T14:15:57;11.30;93.60
25951;DHT22;13748;52.240;6.002;2023-04-03T14:18:38;11.20;93.60
25951;DHT22;13748;52.240;6.002;2023-04-03T14:21:05;11.30;94.70
25951;DHT22;13748;52.240;6.002;2023-04-03T14:23:32;11.50;95.30
25951;DHT22;13748;52.240;6.002;2023-04-03T14:25:59;11.60;94.70
25951;DHT22;13748;52.240;6.002;2023-04-03T14:28:27;11.70;95.00
25951;DHT22;13748;52.240;6.002;2023-04-03T14:30:53;11.80;94.70
25951;DHT22;13748;52.240;6.002;2023-04-03T14:33:21;12.00;95.00
25951;DHT22;13748;52.240;6.002;2023-04-03T14:35:49;12.10;94.80
25951;DHT22;13748;52.240;6.002;2023-04-03T14:38:27;12.10;94.70
25951;DHT22;13748;52.240;6.002;2023-04-03T14:40:55;11.90;94.50
25951;DHT22;13748;52.240;6.002;2023-04-03T14:43:32;11.60;94.90
25951;DHT22;13748;52.240;6.002;2023-04-03T14:45:59;11.60;95.20
25951;DHT22;13748;52.240;6.002;2023-04-03T14:48:27;11.60;94.90
25951;DHT22;13748;52.240;6.002;2023-04-03T14:50:55;11.30;93.90
25951;DHT22;13748;52.240;6.002;2023-04-03T14:53:31;11.40;94.90
25951;DHT22;13748;52.240;6.002;2023-04-03T14:56:11;11.40;95.90
25951;DHT22;13748;52.240;6.002;2023-04-03T14:58:39;11.40;94.80
25951;DHT22;13748;52.240;6.002;2023-04-03T15:01:05;11.20;95.40
25951;DHT22;13748;52.240;6.002;2023-04-03T15:03:35;11.20;95.00
25951;DHT22;13748;52.240;6.002;2023-04-03T15:06:05;11.20;95.10
25951;DHT22;13748;52.240;6.002;2023-04-03T15:08:32;11.10;95.20
25951;DHT22;13748;52.240;6.002;2023-04-03T15:10:58;11.10;95.40
25951;DHT22;13748;52.240;6.002;2023-04-03T15:13:25;11.00;95.60
25951;DHT22;13748;52.240;6.002;2023-04-03T15:15:52;11.10;95.40
25951;DHT22;13748;52.240;6.002;2023-04-03T15:18:25;11.00;94.70
25951;DHT22;13748;52.240;6.002;2023-04-03T15:20:56;11.10;95.40
25951;DHT22;13748;52.240;6.002;2023-04-03T15:23:23;11.00;95.00
25951;DHT22;13748;52.240;6.002;2023-04-03T15:25:53;10.90;95.50
25951;DHT22;13748;52.240;6.002;2023-04-03T15:30:52;11.10;95.80
25951;DHT22;13748;52.240;6.002;2023-04-03T15:33:20;11.10;94.90
25951;DHT22;13748;52.240;6.002;2023-04-03T15:35:48;10.90;94.80
25951;DHT22;13748;52.240;6.002;2023-04-03T15:38:15;10.90;95.90
25951;DHT22;13748;52.240;6.002;2023-04-03T15:40:41;10.90;94.90
25951;DHT22;13748;52.240;6.002;2023-04-03T15:43:13;10.80;95.10
25951;DHT22;13748;52.240;6.002;2023-04-03T15:45:41;10.60;95.10
25951;DHT22;13748;52.240;6.002;2023-04-03T15:48:10;10.40;94.90
25951;DHT22;13748;52.240;6.002;2023-04-03T15:50:39;10.40;95.50
25951;DHT22;13748;52.240;6.002;2023-04-03T15:53:06;10.40;96.10
25951;DHT22;13748;52.240;6.002;2023-04-03T15:55:35;10.50;95.40
25951;DHT22;13748;52.240;6.002;2023-04-03T15:58:03;10.50;95.40
25951;DHT22;13748;52.240;6.002;2023-04-03T16:00:32;10.50;95.20
25951;DHT22;13748;52.240;6.002;2023-04-03T16:03:08;10.50;95.10
25951;DHT22;13748;52.240;6.002;2023-04-03T16:05:38;10.50;94.80
25951;DHT22;13748;52.240;6.002;2023-04-03T16:08:06;10.50;95.10
25951;DHT22;13748;52.240;6.002;2023-04-03T16:10:37;10.30;96.00
25951;DHT22;13748;52.240;6.002;2023-04-03T16:13:07;10.30;96.40
25951;DHT22;13748;52.240;6.002;2023-04-03T16:15:34;10.20;96.30
25951;DHT22;13748;52.240;6.002;2023-04-03T16:18:02;10.10;95.90
25951;DHT22;13748;52.240;6.002;2023-04-03T16:20:31;9.90;96.10
25951;DHT22;13748;52.240;6.002;2023-04-03T16:23:00;9.80;96.20
25951;DHT22;13748;52.240;6.002;2023-04-03T16:25:27;9.80;96.30
25951;DHT22;13748;52.240;6.002;2023-04-03T16:27:54;9.80;96.60
25951;DHT22;13748;52.240;6.002;2023-04-03T16:30:23;9.90;97.10
25951;DHT22;13748;52.240;6.002;2023-04-03T16:32:53;10.00;97.70
25951;DHT22;13748;52.240;6.002;2023-04-03T16:35:22;10.00;97.70
25951;DHT22;13748;52.240;6.002;2023-04-03T16:37:49;10.00;97.80
25951;DHT22;13748;52.240;6.002;2023-04-03T16:40:16;9.80;97.90
25951;DHT22;13748;52.240;6.002;2023-04-03T16:42:43;9.80;97.70
25951;DHT22;13748;52.240;6.002;2023-04-03T16:45:11;9.70;97.80
25951;DHT22;13748;52.240;6.002;2023-04-03T16:47:40;9.60;98.40
25951;DHT22;13748;52.240;6.002;2023-04-03T16:50:07;9.50;98.70
25951;DHT22;13748;52.240;6.002;2023-04-03T16:52:34;9.40;98.70
25951;DHT22;13748;52.240;6.002;2023-04-03T16:55:01;9.40;98.80
25951;DHT22;13748;52.240;6.002;2023-04-03T16:57:28;9.40;98.70
25951;DHT22;13748;52.240;6.002;2023-04-03T16:59:58;9.30;99.10
25951;DHT22;13748;52.240;6.002;2023-04-03T17:02:25;9.30;99.40
25951;DHT22;13748;52.240;6.002;2023-04-03T17:04:54;9.20;99.10
25951;DHT22;13748;52.240;6.002;2023-04-03T17:07:23;9.20;99.50
25951;DHT22;13748;52.240;6.002;2023-04-03T17:09:50;9.10;99.50
25951;DHT22;13748;52.240;6.002;2023-04-03T17:12:18;9.00;99.30
25951;DHT22;13748;52.240;6.002;2023-04-03T17:14:45;9.10;99.60
25951;DHT22;13748;52.240;6.002;2023-04-03T17:17:24;9.00;99.90
25951;DHT22;13748;52.240;6.002;2023-04-03T17:19:54;9.00;99.90
25951;DHT22;13748;52.240;6.002;2023-04-03T17:22:21;9.00;99.90
25951;DHT22;13748;52.240;6.002;2023-04-03T17:24:48;9.00;99.90
25951;DHT22;13748;52.240;6.002;2023-04-03T17:27:15;8.90;99.90
25951;DHT22;13748;52.240;6.002;2023-04-03T17:29:42;8.90;99.90
25951;DHT22;13748;52.240;6.002;2023-04-03T17:32:08;8.90;99.90
25951;DHT22;13748;52.240;6.002;2023-04-03T17:34:38;8.70;99.90
25951;DHT22;13748;52.240;6.002;2023-04-03T17:37:05;8.70;99.90
25951;DHT22;13748;52.240;6.002;2023-04-03T17:39:32;8.70;99.90
25951;DHT22;13748;52.240;6.002;2023-04-03T17:41:59;8.60;99.90
25951;DHT22;13748;52.240;6.002;2023-04-03T17:44:27;8.50;99.90
25951;DHT22;13748;52.240;6.002;2023-04-03T17:46:53;8.40;99.90
25951;DHT22;13748;52.240;6.002;2023-04-03T17:49:21;8.30;99.90
25951;DHT22;13748;52.240;6.002;2023-04-03T17:51:48;8.30;99.90
25951;DHT22;13748;52.240;6.002;2023-04-03T17:54:15;8.20;99.90
25951;DHT22;13748;52.240;6.002;2023-04-03T17:56:42;8.00;99.90
25951;DHT22;13748;52.240;6.002;2023-04-03T17:59:14;8.00;99.90
25951;DHT22;13748;52.240;6.002;2023-04-03T18:01:44;7.90;99.90
25951;DHT22;13748;52.240;6.002;2023-04-03T18:04:14;7.80;99.90
25951;DHT22;13748;52.240;6.002;2023-04-03T18:06:51;7.70;99.90
25951;DHT22;13748;52.240;6.002;2023-04-03T18:09:23;7.70;99.90
25951;DHT22;13748;52.240;6.002;2023-04-03T18:11:51;7.60;99.90
25951;DHT22;13748;52.240;6.002;2023-04-03T18:14:21;7.60;99.90
25951;DHT22;13748;52.240;6.002;2023-04-03T18:16:49;7.50;99.90
25951;DHT22;13748;52.240;6.002;2023-04-03T18:19:16;7.40;99.90
25951;DHT22;13748;52.240;6.002;2023-04-03T18:21:51;7.30;99.90